Time;durP1;ratioP1;P1;durP2;ratioP2;P2;SDS_P1;SDS_P2;PMS_P1;PMS_P2;Temp;Humidity;BMP_temperature;BMP_pressure;BME280_temperature;BME280_humidity;BME280_pressure;Samples;Min_cycle;Max_cycle;Signal;HPM_P1;HPM_P2
2020/12/29 00:01:35;;;;;;;0.38;0.38;;;1.00;99.90;;;;;;5090731;28;20250;-68
2020/12/29 00:04:01;;;;;;;0.85;0.85;;;1.00;99.90;;;;;;5090628;28;20266;-67
2020/12/29 00:06:27;;;;;;;1.30;1.20;;;1.10;99.90;;;;;;5090738;28;20157;-68
2020/12/29 00:08:53;;;;;;;1.05;1.05;;;1.20;99.90;;;;;;5090674;28;20157;-68
2020/12/29 00:11:19;;;;;;;0.10;0.10;;;1.10;99.90;;;;;;5089328;28;20240;-68
2020/12/29 00:13:45;;;;;;;0.90;0.88;;;1.10;99.90;;;;;;5090487;28;20203;-68
2020/12/29 00:16:11;;;;;;;1.40;1.35;;;1.00;99.90;;;;;;5090596;28;20180;-68
2020/12/29 00:18:37;;;;;;;0.80;0.80;;;1.00;99.90;;;;;;5090453;28;20153;-68
2020/12/29 00:21:03;;;;;;;0.17;0.17;;;1.10;99.90;;;;;;5090352;28;20206;-67
2020/12/29 00:23:29;;;;;;;1.13;1.13;;;1.00;99.90;;;;;;5088694;28;20256;-67
2020/12/29 00:25:56;;;;;;;0.10;0.10;;;0.80;99.90;;;;;;5089797;28;20152;-68
2020/12/29 00:28:22;;;;;;;2.75;2.20;;;0.80;99.90;;;;;;5090319;28;20628;-68
2020/12/29 00:30:47;;;;;;;0.20;0.20;;;0.80;99.90;;;;;;5089489;28;20176;-67
2020/12/29 00:33:14;;;;;;;0.20;0.20;;;0.80;99.90;;;;;;5089568;28;20199;-67
2020/12/29 00:35:40;;;;;;;1.60;1.42;;;0.60;99.90;;;;;;5089903;28;20160;-67
2020/12/29 00:38:06;;;;;;;0.47;0.47;;;0.60;99.90;;;;;;5090063;28;20194;-67
2020/12/29 00:40:32;;;;;;;0.73;0.60;;;0.60;99.90;;;;;;5089685;28;20227;-67
2020/12/29 00:42:58;;;;;;;1.98;1.88;;;0.60;99.90;;;;;;5089760;28;20171;-67
2020/12/29 00:45:23;;;;;;;0.73;0.73;;;0.60;99.90;;;;;;5090006;28;20160;-68
2020/12/29 00:47:49;;;;;;;1.13;1.13;;;0.60;99.90;;;;;;5089960;28;20149;-67
2020/12/29 00:50:15;;;;;;;1.25;1.25;;;0.60;99.90;;;;;;5088484;28;20183;-67
2020/12/29 00:52:41;;;;;;;0.20;0.20;;;0.60;99.90;;;;;;5089797;28;20186;-68
2020/12/29 00:55:07;;;;;;;0.88;0.88;;;0.60;99.90;;;;;;5089864;28;20186;-67
2020/12/29 00:57:33;;;;;;;0.25;0.25;;;0.60;99.90;;;;;;5089729;28;20164;-67
2020/12/29 00:59:59;;;;;;;1.00;1.00;;;0.60;99.90;;;;;;5089672;28;20192;-68
2020/12/29 01:02:25;;;;;;;0.52;0.52;;;0.70;99.90;;;;;;5088296;28;20175;-68
2020/12/29 01:04:51;;;;;;;1.33;0.73;;;0.70;99.90;;;;;;5089557;28;20199;-67
2020/12/29 01:07:16;;;;;;;0.10;0.10;;;0.80;99.90;;;;;;5089590;28;20218;-67
2020/12/29 01:09:42;;;;;;;0.57;0.57;;;0.80;99.90;;;;;;5089600;28;20156;-67
2020/12/29 01:12:08;;;;;;;0.60;0.60;;;0.80;99.90;;;;;;5089627;28;20230;-67
2020/12/29 01:14:34;;;;;;;0.50;0.50;;;0.70;99.90;;;;;;5089398;28;20260;-68
2020/12/29 01:17:00;;;;;;;0.20;0.20;;;0.80;99.90;;;;;;5089548;28;20183;-67
2020/12/29 01:19:26;;;;;;;1.67;1.58;;;0.80;99.90;;;;;;5089353;28;20178;-68
2020/12/29 01:21:52;;;;;;;0.70;0.70;;;0.80;99.90;;;;;;5089379;28;20160;-68
2020/12/29 01:24:19;;;;;;;0.43;0.43;;;0.90;99.90;;;;;;5088060;28;20218;-68
2020/12/29 01:26:45;;;;;;;1.30;1.23;;;0.90;99.90;;;;;;5089394;28;20159;-67
2020/12/29 01:29:11;;;;;;;0.82;0.82;;;1.00;99.90;;;;;;5089300;28;20163;-68
2020/12/29 01:31:37;;;;;;;1.17;1.17;;;0.90;99.90;;;;;;5089361;28;20168;-67
2020/12/29 01:34:03;;;;;;;0.10;0.10;;;0.90;99.90;;;;;;5089253;28;20195;-67
2020/12/29 01:36:29;;;;;;;0.30;0.30;;;0.90;99.90;;;;;;5089110;28;20175;-68
2020/12/29 01:38:55;;;;;;;0.10;0.10;;;0.90;99.90;;;;;;5089252;28;20156;-68
2020/12/29 01:41:22;;;;;;;0.10;0.10;;;0.80;99.90;;;;;;5088886;28;20242;-68
2020/12/29 01:43:49;;;;;;;0.73;0.73;;;0.70;99.90;;;;;;5089097;28;20527;-67
2020/12/29 01:46:15;;;;;;;0.30;0.30;;;0.70;99.90;;;;;;5089219;28;20218;-67
2020/12/29 01:48:42;;;;;;;0.50;0.50;;;0.70;99.90;;;;;;5089172;28;20168;-67
2020/12/29 01:51:08;;;;;;;0.80;0.50;;;0.70;99.90;;;;;;5089116;28;20174;-68
2020/12/29 01:53:38;;;;;;;0.15;0.15;;;0.70;99.90;;;;;;5089112;28;20278;-68
2020/12/29 01:56:09;;;;;;;1.48;1.45;;;0.80;99.90;;;;;;5087834;28;20176;-68
2020/12/29 01:58:37;;;;;;;0.30;0.30;;;0.80;99.90;;;;;;5088995;28;20197;-68
2020/12/29 02:01:03;;;;;;;3.70;1.85;;;0.80;99.90;;;;;;5088958;28;20191;-68
2020/12/29 02:03:29;;;;;;;0.85;0.85;;;0.80;99.90;;;;;;5088938;28;20191;-67
2020/12/29 02:05:55;;;;;;;1.05;1.05;;;0.80;99.90;;;;;;5088930;28;20226;-67
2020/12/29 02:08:22;;;;;;;0.95;0.95;;;0.70;99.90;;;;;;5087725;28;20168;-68
2020/12/29 02:10:53;;;;;;;0.35;0.35;;;0.70;99.90;;;;;;5087699;28;20164;-68
2020/12/29 02:13:20;;;;;;;0.10;0.10;;;0.60;99.90;;;;;;5088866;28;20188;-68
2020/12/29 02:15:46;;;;;;;1.35;1.30;;;0.50;99.90;;;;;;5088915;28;20156;-67
2020/12/29 02:18:12;;;;;;;0.43;0.43;;;0.60;99.90;;;;;;5088872;28;20164;-68
2020/12/29 02:20:38;;;;;;;0.52;0.52;;;0.70;99.90;;;;;;5087502;28;20242;-68
2020/12/29 02:23:04;;;;;;;0.10;0.10;;;0.60;99.90;;;;;;5088711;28;20188;-67
2020/12/29 02:25:30;;;;;;;0.20;0.20;;;0.60;99.90;;;;;;5088711;28;20152;-68
2020/12/29 02:27:56;;;;;;;0.15;0.15;;;0.50;99.90;;;;;;5088761;28;20161;-67
2020/12/29 02:30:21;;;;;;;1.60;1.55;;;0.50;99.90;;;;;;5088703;28;20641;-68
2020/12/29 02:32:47;;;;;;;1.27;1.27;;;0.50;99.90;;;;;;5088635;28;20160;-68
2020/12/29 02:35:15;;;;;;;0.52;0.52;;;0.60;99.90;;;;;;5088699;28;20187;-67
2020/12/29 02:37:42;;;;;;;0.40;0.40;;;0.60;99.90;;;;;;5088633;28;20172;-67
2020/12/29 02:40:07;;;;;;;0.60;0.60;;;0.50;99.90;;;;;;5088415;28;20251;-68
2020/12/29 02:42:33;;;;;;;0.20;0.20;;;0.50;99.90;;;;;;5088526;28;20171;-68
2020/12/29 02:44:59;;;;;;;0.13;0.13;;;0.50;99.90;;;;;;5088566;28;20192;-68
2020/12/29 02:47:25;;;;;;;0.85;0.85;;;0.50;99.90;;;;;;5089336;28;20493;-67
2020/12/29 02:49:51;;;;;;;0.47;0.47;;;0.40;99.90;;;;;;5090869;28;20206;-67
2020/12/29 02:52:17;;;;;;;0.17;0.17;;;0.40;99.90;;;;;;5090958;28;20176;-67
2020/12/29 02:54:43;;;;;;;1.20;1.10;;;0.40;99.90;;;;;;5092051;28;20188;-68
2020/12/29 02:57:09;;;;;;;0.75;0.75;;;0.40;99.90;;;;;;5092080;28;20164;-68
2020/12/29 02:59:35;;;;;;;0.20;0.20;;;0.40;99.90;;;;;;5091946;28;20167;-67
2020/12/29 03:02:01;;;;;;;0.60;0.60;;;0.40;99.90;;;;;;5092001;28;20164;-67
2020/12/29 03:04:27;;;;;;;0.90;0.90;;;0.30;99.90;;;;;;5090516;28;20192;-67
2020/12/29 03:06:53;;;;;;;0.28;0.28;;;0.30;99.90;;;;;;5091775;28;20155;-67
2020/12/29 03:09:19;;;;;;;0.20;0.20;;;0.30;99.90;;;;;;5091844;28;20152;-68
2020/12/29 03:11:46;;;;;;;0.68;0.68;;;0.40;99.90;;;;;;5090538;28;20648;-68
2020/12/29 03:14:13;;;;;;;1.05;1.05;;;0.50;99.90;;;;;;5091681;28;20200;-68
2020/12/29 03:16:39;;;;;;;0.40;0.40;;;0.30;99.90;;;;;;5091755;28;20163;-68
2020/12/29 03:19:05;;;;;;;0.55;0.55;;;0.40;99.90;;;;;;5091710;28;20160;-68
2020/12/29 03:21:31;;;;;;;0.20;0.20;;;0.30;99.90;;;;;;5091474;28;20255;-68
2020/12/29 03:23:57;;;;;;;0.10;0.10;;;0.20;99.90;;;;;;5090319;28;20191;-68
2020/12/29 03:26:25;;;;;;;0.35;0.35;;;0.20;99.90;;;;;;5091536;28;20173;-66
2020/12/29 03:28:53;;;;;;;0.30;0.30;;;0.30;99.90;;;;;;5091472;28;20198;-68
2020/12/29 03:31:20;;;;;;;0.10;0.10;;;0.40;99.90;;;;;;5091413;28;20236;-68
2020/12/29 03:33:46;;;;;;;0.65;0.65;;;0.40;99.90;;;;;;5091092;28;20184;-68
2020/12/29 03:36:12;;;;;;;0.20;0.20;;;0.40;99.90;;;;;;5090001;28;20168;-67
2020/12/29 03:38:37;;;;;;;0.90;0.90;;;0.40;99.90;;;;;;5091185;28;20164;-67
2020/12/29 03:41:04;;;;;;;0.20;0.20;;;0.40;99.90;;;;;;5091006;28;20247;-68
2020/12/29 03:43:30;;;;;;;0.35;0.17;;;0.10;99.90;;;;;;5091087;28;20210;-68
2020/12/29 03:45:56;;;;;;;0.30;0.30;;;0.10;99.90;;;;;;5091135;28;20149;-68
2020/12/29 03:48:25;;;;;;;1.38;1.17;;;0.00;99.90;;;;;;5089584;28;20168;-68
2020/12/29 03:50:51;;;;;;;0.65;0.65;;;0.00;99.90;;;;;;5090879;28;20176;-68
2020/12/29 03:53:17;;;;;;;0.10;0.10;;;0.00;99.90;;;;;;5090905;28;20196;-68
2020/12/29 03:55:43;;;;;;;0.40;0.40;;;0.00;99.90;;;;;;5090732;28;20157;-67
2020/12/29 03:58:09;;;;;;;0.50;0.50;;;0.20;99.90;;;;;;5090809;28;20167;-67
2020/12/29 04:00:36;;;;;;;0.10;0.10;;;0.30;99.90;;;;;;5089351;28;20552;-68
2020/12/29 04:03:03;;;;;;;1.98;1.88;;;0.20;99.90;;;;;;5090631;28;20191;-68
2020/12/29 04:05:29;;;;;;;3.30;3.10;;;0.10;99.90;;;;;;5090752;28;20156;-68
2020/12/29 04:07:55;;;;;;;0.10;0.10;;;0.30;99.90;;;;;;5096980;28;20217;-68
2020/12/29 04:10:21;;;;;;;0.70;0.70;;;0.20;99.90;;;;;;5110875;28;20213;-68
2020/12/29 04:12:48;;;;;;;0.22;0.22;;;0.10;99.90;;;;;;5101786;28;20204;-68
2020/12/29 04:15:14;;;;;;;0.10;0.10;;;0.20;99.90;;;;;;5089211;28;20168;-67
2020/12/29 04:17:42;;;;;;;0.47;0.47;;;0.10;99.90;;;;;;5090431;28;20171;-67
2020/12/29 04:20:10;;;;;;;0.55;0.55;;;0.00;99.90;;;;;;5090280;28;20188;-67
2020/12/29 04:22:37;;;;;;;0.20;0.20;;;-0.10;99.90;;;;;;5089058;28;20794;-68
2020/12/29 04:25:06;;;;;;;0.30;0.30;;;0.00;99.90;;;;;;5090360;28;20168;-68
2020/12/29 04:27:32;;;;;;;0.35;0.35;;;-0.10;99.90;;;;;;5088856;28;20184;-68
2020/12/29 04:29:58;;;;;;;0.35;0.35;;;-0.20;99.90;;;;;;5090308;28;20251;-68
2020/12/29 04:32:24;;;;;;;0.38;0.38;;;-0.10;99.90;;;;;;5090171;28;20238;-67
2020/12/29 04:34:50;;;;;;;0.57;0.57;;;0.00;99.90;;;;;;5090257;28;20176;-68
2020/12/29 04:37:17;;;;;;;0.10;0.10;;;0.00;99.90;;;;;;5090129;28;20160;-67
2020/12/29 04:39:43;;;;;;;0.63;0.63;;;-0.10;99.90;;;;;;5089711;28;20240;-68
2020/12/29 04:42:15;;;;;;;0.20;0.20;;;0.00;99.90;;;;;;5088566;28;20562;-68
2020/12/29 04:44:43;;;;;;;0.20;0.20;;;0.00;99.90;;;;;;5088715;28;20180;-68
2020/12/29 04:47:11;;;;;;;1.13;1.10;;;-0.20;99.90;;;;;;5089928;28;20160;-68
2020/12/29 04:49:38;;;;;;;0.30;0.30;;;-0.30;99.90;;;;;;5089711;28;20224;-67
2020/12/29 04:52:06;;;;;;;0.75;0.63;;;-0.20;99.90;;;;;;5088561;28;20168;-68
2020/12/29 04:54:34;;;;;;;0.10;0.10;;;-0.10;99.90;;;;;;5089700;28;20170;-68
2020/12/29 04:57:02;;;;;;;0.65;0.65;;;-0.10;99.90;;;;;;5089541;28;20501;-68
2020/12/29 04:59:32;;;;;;;0.75;0.75;;;-0.10;99.90;;;;;;5089468;28;20153;-68
2020/12/29 05:01:59;;;;;;;0.68;0.68;;;-0.10;99.90;;;;;;5088177;28;20247;-68
2020/12/29 05:04:25;;;;;;;0.10;0.10;;;-0.30;99.90;;;;;;5089625;28;20219;-67
2020/12/29 05:06:52;;;;;;;1.25;1.15;;;-0.40;99.90;;;;;;5089639;28;20182;-68
2020/12/29 05:09:22;;;;;;;0.20;0.20;;;-0.40;99.90;;;;;;5089459;28;20162;-68
2020/12/29 05:11:49;;;;;;;0.38;0.25;;;-0.40;99.90;;;;;;5088976;28;20612;-68
2020/12/29 05:14:15;;;;;;;0.88;0.88;;;-0.40;99.90;;;;;;5089411;28;20178;-67
2020/12/29 05:16:42;;;;;;;0.50;0.50;;;-0.40;99.90;;;;;;5088001;28;20172;-67
2020/12/29 05:19:13;;;;;;;0.20;0.20;;;-0.30;99.90;;;;;;5089297;28;20159;-67
2020/12/29 05:21:40;;;;;;;0.20;0.20;;;-0.20;99.90;;;;;;5089210;28;20243;-68
2020/12/29 05:24:15;;;;;;;0.10;0.10;;;-0.30;99.90;;;;;;5088183;28;20218;-68
2020/12/29 05:26:43;;;;;;;2.05;1.95;;;-0.30;99.90;;;;;;5089313;28;20160;-67
2020/12/29 05:29:14;;;;;;;0.20;0.20;;;-0.30;99.90;;;;;;5089187;28;20165;-68
2020/12/29 05:31:45;;;;;;;0.10;0.10;;;-0.20;99.90;;;;;;5089344;28;20152;-68
2020/12/29 05:34:37;;;;;;;0.20;0.20;;;-0.30;99.90;;;;;;5089184;28;20160;-68
2020/12/29 05:37:02;;;;;;;0.10;0.10;;;-0.50;99.90;;;;;;5088553;28;20190;-68
2020/12/29 05:39:29;;;;;;;0.30;0.30;;;-0.50;99.90;;;;;;5107998;28;20206;-68
2020/12/29 05:41:57;;;;;;;0.15;0.15;;;-0.60;99.90;;;;;;5107923;28;20186;-67
2020/12/29 05:44:33;;;;;;;0.15;0.15;;;-0.60;99.90;;;;;;5107460;28;20167;-68
2020/12/29 05:47:01;;;;;;;0.25;0.25;;;-0.70;99.90;;;;;;5109239;28;20159;-68
2020/12/29 05:49:30;;;;;;;0.25;0.25;;;-0.60;99.90;;;;;;5107883;28;20175;-68
2020/12/29 05:51:57;;;;;;;0.30;0.30;;;-0.70;99.90;;;;;;5109212;28;20151;-68
2020/12/29 05:54:27;;;;;;;0.10;0.10;;;-0.90;99.90;;;;;;5109267;28;20159;-67
2020/12/29 05:56:54;;;;;;;0.17;0.17;;;-0.80;99.90;;;;;;5107986;28;20239;-67
2020/12/29 05:59:21;;;;;;;1.17;1.08;;;-0.70;99.90;;;;;;5109230;28;20155;-67
2020/12/29 06:01:51;;;;;;;0.20;0.20;;;-0.80;99.90;;;;;;5108895;28;20218;-67
2020/12/29 06:04:19;;;;;;;0.13;0.13;;;-0.90;99.90;;;;;;5107776;28;20171;-68
2020/12/29 06:06:49;;;;;;;0.15;0.15;;;-1.00;99.90;;;;;;5109157;28;20178;-68
2020/12/29 06:09:20;;;;;;;0.10;0.10;;;-0.90;99.90;;;;;;5109029;28;20625;-68
2020/12/29 06:11:51;;;;;;;0.30;0.30;;;-0.90;99.90;;;;;;5108984;28;20163;-68
2020/12/29 06:14:25;;;;;;;0.10;0.10;;;-1.00;99.90;;;;;;5108961;28;20180;-68
2020/12/29 06:16:53;;;;;;;0.40;0.40;;;-0.90;99.90;;;;;;5109098;28;20179;-69
2020/12/29 06:19:28;;;;;;;0.20;0.20;;;-1.00;99.90;;;;;;5108954;28;20233;-68
2020/12/29 06:22:07;;;;;;;0.57;0.57;;;-1.00;99.90;;;;;;5107624;28;20190;-68
2020/12/29 06:24:39;;;;;;;0.20;0.20;;;-0.90;99.90;;;;;;5112729;28;20185;-69
2020/12/29 06:27:06;;;;;;;0.50;0.50;;;-1.00;99.90;;;;;;5111675;28;20167;-68
2020/12/29 06:29:41;;;;;;;0.65;0.65;;;-1.10;99.90;;;;;;5111491;28;20167;-67
2020/12/29 06:32:19;;;;;;;0.20;0.20;;;-1.00;99.90;;;;;;5112652;28;20186;-68
2020/12/29 06:34:47;;;;;;;0.20;0.20;;;-0.80;99.90;;;;;;5111335;28;20175;-68
2020/12/29 06:37:31;;;;;;;0.30;0.30;;;-1.10;99.90;;;;;;5093902;28;20156;-68
2020/12/29 06:40:07;;;;;;;0.43;0.43;;;-1.10;99.90;;;;;;5091726;28;20294;-69
2020/12/29 06:42:38;;;;;;;0.50;0.50;;;-1.10;99.90;;;;;;5090707;28;20357;-66
2020/12/29 06:45:07;;;;;;;0.13;0.13;;;-1.10;99.90;;;;;;5090934;28;20168;-69
2020/12/29 06:47:38;;;;;;;0.28;0.28;;;-1.10;99.90;;;;;;5092036;28;20214;-68
2020/12/29 06:50:26;;;;;;;0.63;0.63;;;-1.10;99.90;;;;;;5091981;28;20166;-69
2020/12/29 06:53:03;;;;;;;0.10;0.10;;;-1.00;99.90;;;;;;5092018;28;20191;-66
2020/12/29 06:55:32;;;;;;;0.20;0.20;;;-1.10;99.90;;;;;;5091932;28;20156;-66
2020/12/29 06:57:58;;;;;;;0.10;0.10;;;-1.10;99.90;;;;;;5094054;28;20203;-66
2020/12/29 07:00:25;;;;;;;0.20;0.20;;;-1.00;99.90;;;;;;5090188;28;20192;-69
2020/12/29 07:02:53;;;;;;;0.30;0.30;;;-1.00;99.90;;;;;;5090463;28;20204;-66
2020/12/29 07:05:24;;;;;;;0.10;0.10;;;-0.80;99.90;;;;;;5091802;28;20160;-68
2020/12/29 07:07:54;;;;;;;0.68;0.68;;;-0.90;99.90;;;;;;5092578;28;20163;-67
2020/12/29 07:10:21;;;;;;;0.95;0.95;;;-0.80;99.90;;;;;;5112111;28;20168;-68
2020/12/29 07:12:49;;;;;;;0.30;0.30;;;-0.80;99.90;;;;;;5110444;28;20194;-68
2020/12/29 07:15:24;;;;;;;0.10;0.10;;;-0.70;99.90;;;;;;5111835;28;20156;-68
2020/12/29 07:17:57;;;;;;;0.35;0.35;;;-0.60;99.90;;;;;;5111955;28;20155;-68
2020/12/29 07:20:25;;;;;;;0.10;0.10;;;-0.50;99.90;;;;;;5111599;28;20644;-68
2020/12/29 07:23:14;;;;;;;0.10;0.10;;;-0.50;99.90;;;;;;5111816;28;20199;-68
2020/12/29 07:25:48;;;;;;;0.25;0.25;;;-0.40;99.90;;;;;;5111526;28;20148;-68
2020/12/29 07:28:17;;;;;;;1.13;1.13;;;-0.60;99.90;;;;;;5111758;28;20159;-68
2020/12/29 07:30:45;;;;;;;1.00;1.00;;;-0.60;99.90;;;;;;5111670;28;20191;-68
2020/12/29 07:33:11;;;;;;;0.40;0.40;;;-0.60;99.90;;;;;;5111073;28;20301;-67
2020/12/29 07:35:39;;;;;;;1.05;0.98;;;-0.40;99.90;;;;;;5111459;28;20159;-68
2020/12/29 07:38:19;;;;;;;0.20;0.20;;;-0.30;99.90;;;;;;5111162;28;20254;-68
2020/12/29 07:40:45;;;;;;;0.10;0.10;;;-0.40;99.90;;;;;;5111160;28;20245;-68
2020/12/29 07:43:11;;;;;;;1.10;1.10;;;-0.40;99.90;;;;;;5111236;28;20195;-68
2020/12/29 07:45:38;;;;;;;0.30;0.30;;;-0.30;99.90;;;;;;5111246;28;20152;-68
2020/12/29 07:48:05;;;;;;;1.33;1.33;;;-0.20;99.90;;;;;;5111234;28;20177;-68
2020/12/29 07:50:33;;;;;;;0.10;0.10;;;-0.20;99.90;;;;;;5111328;28;20166;-69
2020/12/29 07:53:06;;;;;;;0.50;0.50;;;-0.10;99.90;;;;;;5111187;28;20187;-68
2020/12/29 07:55:33;;;;;;;0.10;0.10;;;0.10;99.90;;;;;;5111132;28;20147;-68
2020/12/29 07:58:06;;;;;;;0.30;0.30;;;0.20;99.90;;;;;;5111238;28;20219;-68
2020/12/29 08:00:33;;;;;;;0.20;0.20;;;0.10;99.90;;;;;;5111030;28;20179;-68
2020/12/29 08:03:00;;;;;;;0.13;0.13;;;0.30;99.90;;;;;;5110836;28;20655;-68
2020/12/29 08:05:29;;;;;;;0.20;0.20;;;0.40;99.90;;;;;;5111125;28;20171;-67
2020/12/29 08:07:59;;;;;;;0.20;0.20;;;0.70;99.90;;;;;;5110851;28;20163;-67
2020/12/29 08:10:37;;;;;;;0.68;0.68;;;0.90;99.90;;;;;;5110897;28;20155;-68
2020/12/29 08:13:05;;;;;;;0.30;0.30;;;1.30;99.90;;;;;;5109266;28;20266;-68
2020/12/29 08:15:38;;;;;;;0.22;0.22;;;1.70;99.90;;;;;;5110877;28;20156;-68
2020/12/29 08:18:09;;;;;;;0.28;0.28;;;2.10;99.90;;;;;;5110760;28;20517;-68
2020/12/29 08:20:57;;;;;;;1.38;1.17;;;2.70;99.90;;;;;;5110535;28;20674;-68
2020/12/29 08:23:25;;;;;;;0.10;0.10;;;3.00;99.90;;;;;;5109204;28;20191;-68
2020/12/29 08:25:55;;;;;;;0.30;0.30;;;3.10;99.90;;;;;;5110556;28;20155;-69
2020/12/29 08:28:23;;;;;;;1.50;1.40;;;3.70;99.90;;;;;;5110546;28;20170;-68
2020/12/29 08:30:50;;;;;;;1.05;0.95;;;4.70;99.90;;;;;;5109152;28;20167;-69
2020/12/29 08:33:19;;;;;;;1.27;1.27;;;4.80;99.90;;;;;;5110349;28;20189;-69
2020/12/29 08:35:48;;;;;;;0.10;0.10;;;5.00;99.90;;;;;;5110467;28;20155;-68
2020/12/29 08:38:26;;;;;;;2.97;1.45;;;5.00;99.90;;;;;;5110282;28;20155;-68
2020/12/29 08:41:13;;;;;;;0.10;0.10;;;5.10;99.90;;;;;;5110089;28;20233;-68
2020/12/29 08:43:47;;;;;;;0.00;0.00;;;5.00;99.90;;;;;;5110186;28;20191;-68
2020/12/29 08:46:19;;;;;;;2.05;1.95;;;4.60;99.90;;;;;;5109502;28;20611;-69
2020/12/29 08:49:05;;;;;;;0.43;0.43;;;5.20;99.90;;;;;;5110014;28;20568;-69
2020/12/29 08:51:45;;;;;;;0.98;0.98;;;5.30;99.90;;;;;;5109873;28;20159;-68
2020/12/29 08:54:16;;;;;;;0.63;0.63;;;5.30;99.90;;;;;;5109935;28;20170;-68
2020/12/29 08:56:43;;;;;;;0.22;0.13;;;7.00;99.90;;;;;;5108721;28;20163;-68
2020/12/29 08:59:19;;;;;;;0.10;0.10;;;7.20;99.90;;;;;;5109669;28;20171;-68
2020/12/29 09:01:48;;;;;;;1.35;1.35;;;7.70;99.90;;;;;;5109763;28;20201;-68
2020/12/29 09:04:36;;;;;;;1.15;0.95;;;8.90;99.90;;;;;;5109500;28;20191;-68
2020/12/29 09:07:08;;;;;;;3.45;1.10;;;10.30;99.90;;;;;;5109662;28;20203;-68
2020/12/29 09:09:58;;;;;;;0.10;0.10;;;8.60;99.90;;;;;;5109579;28;20187;-67
2020/12/29 09:12:35;;;;;;;1.67;1.50;;;9.60;99.90;;;;;;5109745;28;20156;-67
2020/12/29 09:15:03;;;;;;;2.35;2.17;;;10.70;99.90;;;;;;5109502;28;20191;-67
2020/12/29 09:17:37;;;;;;;0.60;0.60;;;9.50;99.90;;;;;;5109701;28;20197;-67
2020/12/29 09:20:25;;;;;;;0.95;0.95;;;9.80;99.90;;;;;;5109453;28;20225;-66
2020/12/29 09:22:53;;;;;;;0.52;0.45;;;8.90;99.90;;;;;;5109550;28;20178;-66
2020/12/29 09:25:44;;;;;;;0.05;0.05;;;7.60;99.90;;;;;;5108146;28;20163;-67
2020/12/29 09:28:16;;;;;;;0.10;0.10;;;7.70;99.90;;;;;;5108106;28;20198;-67
2020/12/29 09:30:45;;;;;;;0.60;0.60;;;9.00;99.90;;;;;;5109451;28;20202;-66
2020/12/29 09:33:18;;;;;;;1.27;1.17;;;7.70;99.90;;;;;;5107984;28;20179;-67
2020/12/29 09:35:44;;;;;;;3.20;0.98;;;7.10;99.90;;;;;;5109424;28;20155;-67
2020/12/29 09:38:13;;;;;;;1.10;1.00;;;7.90;99.90;;;;;;5109180;28;20194;-67
2020/12/29 09:40:39;;;;;;;0.30;0.30;;;7.20;99.90;;;;;;5108914;28;20286;-67
2020/12/29 09:43:05;;;;;;;1.20;1.10;;;7.20;99.90;;;;;;5109070;28;20160;-67
2020/12/29 09:45:31;;;;;;;0.52;0.52;;;9.20;99.90;;;;;;5109167;28;20166;-67
2020/12/29 09:47:57;;;;;;;1.23;1.20;;;10.60;99.90;;;;;;5109329;28;20193;-67
2020/12/29 09:50:23;;;;;;;1.38;1.27;;;10.60;99.90;;;;;;5108828;28;20198;-67
2020/12/29 09:52:49;;;;;;;0.35;0.35;;;10.90;99.90;;;;;;5108001;28;20235;-67
2020/12/29 09:55:15;;;;;;;0.47;0.47;;;10.80;99.90;;;;;;5109196;28;20155;-67
2020/12/29 09:57:41;;;;;;;0.85;0.85;;;10.60;99.90;;;;;;5112195;28;20170;-67
2020/12/29 10:00:07;;;;;;;0.80;0.80;;;11.10;99.90;;;;;;5113052;28;20258;-67
2020/12/29 10:02:33;;;;;;;1.08;1.08;;;9.10;99.90;;;;;;5113116;28;20151;-67
2020/12/29 10:04:59;;;;;;;0.95;0.95;;;7.60;99.90;;;;;;5113241;28;20156;-67
2020/12/29 10:07:26;;;;;;;0.20;0.20;;;5.90;99.90;;;;;;5111993;28;20208;-67
2020/12/29 10:09:52;;;;;;;0.55;0.55;;;6.00;99.90;;;;;;5113015;28;20211;-67
2020/12/29 10:12:18;;;;;;;0.30;0.30;;;6.40;99.90;;;;;;5111864;28;20159;-66
2020/12/29 10:14:45;;;;;;;0.40;0.40;;;6.80;99.90;;;;;;5113005;28;20151;-66
2020/12/29 10:17:11;;;;;;;0.60;0.57;;;7.30;99.90;;;;;;5113105;28;20363;-67
2020/12/29 10:19:37;;;;;;;0.40;0.40;;;7.50;99.90;;;;;;5111407;28;20223;-67
2020/12/29 10:22:03;;;;;;;0.28;0.28;;;7.70;99.90;;;;;;5112956;28;20166;-67
2020/12/29 10:24:29;;;;;;;0.65;0.65;;;8.30;99.90;;;;;;5112791;28;20155;-67
2020/12/29 10:26:56;;;;;;;1.33;0.95;;;8.10;99.90;;;;;;5112673;28;20160;-67
2020/12/29 10:29:23;;;;;;;1.60;1.38;;;7.40;99.90;;;;;;5112626;28;20250;-67
2020/12/29 10:31:49;;;;;;;1.10;1.08;;;5.80;99.90;;;;;;5111316;28;20159;-66
2020/12/29 10:34:16;;;;;;;0.98;0.98;;;4.90;99.90;;;;;;5112540;28;20166;-66
2020/12/29 10:36:43;;;;;;;1.17;0.95;;;4.80;99.90;;;;;;5112476;28;20496;-66
2020/12/29 10:39:10;;;;;;;0.20;0.20;;;5.00;99.90;;;;;;5111038;28;20182;-67
2020/12/29 10:41:38;;;;;;;1.55;1.30;;;4.80;99.90;;;;;;5111244;28;20710;-66
2020/12/29 10:44:06;;;;;;;1.25;1.25;;;4.80;99.90;;;;;;5112532;28;20155;-66
2020/12/29 10:46:32;;;;;;;0.77;0.75;;;5.00;99.90;;;;;;5112471;28;20205;-66
2020/12/29 10:48:58;;;;;;;0.20;0.20;;;5.50;99.90;;;;;;5111118;28;20175;-66
2020/12/29 10:51:25;;;;;;;1.15;1.05;;;6.00;99.90;;;;;;5112288;28;20195;-66
2020/12/29 10:53:52;;;;;;;0.30;0.30;;;6.40;99.90;;;;;;5112394;28;20169;-66
2020/12/29 10:56:19;;;;;;;0.20;0.20;;;6.60;99.90;;;;;;5111840;28;20159;-67
2020/12/29 10:58:45;;;;;;;1.00;1.00;;;7.10;99.90;;;;;;5111550;28;20179;-67
2020/12/29 11:01:13;;;;;;;0.10;0.10;;;7.10;99.90;;;;;;5112006;28;20266;-66
2020/12/29 11:03:39;;;;;;;0.93;0.93;;;6.60;99.90;;;;;;5111041;28;20168;-67
2020/12/29 11:06:19;;;;;;;1.25;1.15;;;6.10;99.90;;;;;;5111961;28;20219;-66
2020/12/29 11:08:46;;;;;;;0.30;0.30;;;5.90;99.90;;;;;;5111312;28;20152;-67
2020/12/29 11:11:13;;;;;;;0.30;0.30;;;6.20;99.90;;;;;;5112049;28;20202;-67
2020/12/29 11:13:39;;;;;;;0.55;0.55;;;7.40;99.90;;;;;;5111865;28;20167;-67
2020/12/29 11:16:05;;;;;;;0.98;0.98;;;8.50;99.90;;;;;;5111797;28;20624;-67
2020/12/29 11:18:31;;;;;;;0.20;0.20;;;9.50;99.90;;;;;;5110628;28;20205;-67
2020/12/29 11:20:57;;;;;;;0.35;0.30;;;9.50;99.90;;;;;;5110343;28;20206;-67
2020/12/29 11:23:23;;;;;;;0.82;0.82;;;9.10;99.90;;;;;;5110480;28;20160;-67
2020/12/29 11:25:50;;;;;;;0.95;0.95;;;8.40;99.90;;;;;;5111607;28;20226;-67
2020/12/29 11:28:16;;;;;;;0.65;0.65;;;8.10;99.90;;;;;;5111728;28;20163;-67
2020/12/29 11:30:44;;;;;;;3.50;0.45;;;8.40;99.90;;;;;;5111661;28;20187;-67
2020/12/29 11:33:10;;;;;;;1.98;0.90;;;8.70;99.90;;;;;;5111635;28;20241;-67
2020/12/29 11:35:36;;;;;;;1.90;0.98;;;8.50;99.90;;;;;;5111567;28;20168;-67
2020/12/29 11:38:02;;;;;;;1.60;1.55;;;7.20;99.90;;;;;;5111389;28;20170;-67
2020/12/29 11:40:27;;;;;;;4.10;1.20;;;6.80;99.90;;;;;;5109867;28;20218;-67
2020/12/29 11:42:53;;;;;;;1.10;1.10;;;7.10;99.90;;;;;;5111183;28;20160;-66
2020/12/29 11:45:19;;;;;;;1.27;0.52;;;6.90;99.90;;;;;;5109635;28;20163;-67
2020/12/29 11:47:46;;;;;;;0.82;0.82;;;7.10;99.90;;;;;;5111217;28;20159;-67
2020/12/29 11:50:12;;;;;;;0.45;0.45;;;7.00;99.90;;;;;;5111066;28;20667;-67
2020/12/29 11:52:38;;;;;;;0.52;0.52;;;6.80;99.90;;;;;;5109984;28;20179;-66
2020/12/29 11:55:03;;;;;;;0.30;0.30;;;6.10;99.90;;;;;;5111249;28;20170;-67
2020/12/29 11:57:29;;;;;;;2.15;2.00;;;5.50;99.90;;;;;;5111124;28;20251;-66
2020/12/29 11:59:55;;;;;;;0.57;0.57;;;5.30;99.90;;;;;;5110918;28;20217;-66
2020/12/29 12:02:20;;;;;;;0.45;0.45;;;5.40;99.90;;;;;;5110987;28;20167;-67
2020/12/29 12:04:46;;;;;;;1.02;1.02;;;5.30;99.90;;;;;;5110980;28;20163;-66
2020/12/29 12:07:12;;;;;;;0.93;0.93;;;4.80;99.90;;;;;;5110928;28;20160;-67
2020/12/29 12:09:38;;;;;;;0.82;0.82;;;4.70;99.90;;;;;;5110626;28;20210;-66
2020/12/29 12:12:05;;;;;;;1.15;0.85;;;4.70;99.90;;;;;;5110843;28;20182;-66
2020/12/29 12:14:31;;;;;;;0.57;0.57;;;4.80;99.90;;;;;;5109366;28;20209;-66
2020/12/29 12:16:57;;;;;;;0.93;0.90;;;4.80;99.90;;;;;;5110732;28;20570;-66
2020/12/29 12:19:23;;;;;;;0.40;0.40;;;4.70;99.90;;;;;;5110346;28;20245;-66
2020/12/29 12:21:48;;;;;;;0.40;0.40;;;4.70;99.90;;;;;;5109982;28;20191;-67
2020/12/29 12:24:14;;;;;;;0.30;0.30;;;4.80;99.90;;;;;;5109110;28;20178;-66
2020/12/29 12:26:40;;;;;;;1.30;1.30;;;4.70;99.90;;;;;;5110473;28;20181;-66
2020/12/29 12:29:06;;;;;;;4.15;1.25;;;4.90;99.90;;;;;;5110461;28;20144;-66
2020/12/29 12:31:31;;;;;;;0.75;0.75;;;4.90;99.90;;;;;;5110339;28;20190;-67
2020/12/29 12:33:57;;;;;;;0.95;0.70;;;4.90;99.90;;;;;;5110402;28;20159;-67
2020/12/29 12:36:23;;;;;;;1.08;1.08;;;5.10;99.90;;;;;;5098667;28;20629;-67
2020/12/29 12:38:49;;;;;;;0.82;0.82;;;5.30;99.90;;;;;;5090052;28;20164;-67
2020/12/29 12:41:15;;;;;;;3.80;0.98;;;5.20;99.90;;;;;;5089638;28;20592;-67
2020/12/29 12:43:43;;;;;;;1.85;1.63;;;5.00;99.90;;;;;;5089752;28;20219;-66
2020/12/29 12:46:09;;;;;;;1.08;1.08;;;4.80;99.90;;;;;;5088565;28;20194;-66
2020/12/29 12:48:36;;;;;;;0.32;0.32;;;4.90;99.90;;;;;;5089668;28;20157;-66
2020/12/29 12:51:02;;;;;;;0.43;0.43;;;4.70;99.90;;;;;;5089537;28;20211;-67
2020/12/29 12:53:28;;;;;;;0.40;0.40;;;4.90;99.90;;;;;;5088380;28;20168;-66
2020/12/29 12:55:54;;;;;;;0.68;0.68;;;5.20;99.90;;;;;;5088429;28;20221;-67
2020/12/29 12:58:19;;;;;;;0.85;0.85;;;5.10;99.90;;;;;;5089756;28;20156;-67
2020/12/29 13:00:47;;;;;;;0.75;0.75;;;4.90;99.90;;;;;;5089319;28;20227;-67